Zografos, Greece
Current Conditions -  °F | °C
As of 4:20 PM on Sunday 21 Dec 2014 (Local Time) from LGTS Reporting Station
Broken Clouds Broken Clouds  
Wind Chill: 52°   Ceiling: 6000
Heat Index: 52°   Visibility: 6mi
Dew Point: 36°   Wind: 31mph
Humidity: 54%   Direction: 320°NW
Pressure: 30.18"   Gusts: 48mph
Location:  40.28°N, 23.25°E
Report Text: LGTS 211320Z 32027G42KT 9999 FEW030 BKN060 11/02 Q1022 NOSIG
Loading
Personal Weather Stations






























Interactive Weather Map New forecast layout! Learn more

10-Day Weather Forecast

Advertisements
Track Severe Weather on mobile